21NY weather

Gautieri Heliport
Batavia, New York, United States

Public forecast

Using degrees Fahrenheit for public forecast. Weather courtesy of forecast.io.

Closest aviation weather report (METAR) to Gautieri Heliport

Closest report is Greater Rochester International Airport, 23.4 nm (43.4 km) ENE. Retrieved 2020/07/03 19:54 UTC (46 minutes ago):

KROC 031954Z 36010KT 10SM FEW050 FEW085 SCT250 30/17 A2991 RMK AO2 SLP127 T03000172

Closest aviation forecast (TAF) to Gautieri Heliport

Closest forecast is Greater Rochester International Airport, 23.4 nm (43.4 km) ENE. Retrieved 2020/07/03 18:36 UTC (2 hours ago):

TAF KROC 031735Z 0318/0418 35008KT P6SM FEW045 SCT100 FM032100 01007KT P6SM FEW060 FEW120 FM040000 VRB04KT P6SM FEW070 SCT150 FM041600 02005KT P6SM FEW250